Time;durP1;ratioP1;P1;durP2;ratioP2;P2;SDS_P1;SDS_P2;PMS_P1;PMS_P2;Temp;Humidity;BMP_temperature;BMP_pressure;BME280_temperature;BME280_humidity;BME280_pressure;Samples;Min_cycle;Max_cycle;Signal;HPM_P1;HPM_P2
2023/08/07 00:02:09;;;;;;;2.40;1.87;;;19.10;97.20;;;;;;4989344;28;20425;-75
2023/08/07 00:04:34;;;;;;;2.00;1.80;;;19.10;97.20;;;;;;4989202;28;20897;-75
2023/08/07 00:07:06;;;;;;;2.93;2.30;;;19.10;97.20;;;;;;4972414;28;20272;-75
2023/08/07 00:09:34;;;;;;;4.93;1.87;;;19.10;97.20;;;;;;4988611;28;20437;-75
2023/08/07 00:12:08;;;;;;;3.93;1.97;;;19.10;97.20;;;;;;4990461;28;20444;-74
2023/08/07 00:14:36;;;;;;;3.43;1.87;;;19.00;97.20;;;;;;4989006;28;20429;-74
2023/08/07 00:17:05;;;;;;;3.33;2.13;;;19.10;97.30;;;;;;4972331;28;20525;-75
2023/08/07 00:19:31;;;;;;;3.80;2.10;;;19.00;97.20;;;;;;5000027;28;20441;-72
2023/08/07 00:22:00;;;;;;;2.93;2.00;;;19.00;97.20;;;;;;4974969;28;20441;-75
2023/08/07 00:24:32;;;;;;;2.60;1.80;;;19.00;97.20;;;;;;5008173;28;20201;-75
2023/08/07 00:26:58;;;;;;;4.60;2.00;;;19.00;97.20;;;;;;5008193;28;21128;-75
2023/08/07 00:29:26;;;;;;;4.40;1.83;;;19.00;97.20;;;;;;5012244;28;20417;-75
2023/08/07 00:31:57;;;;;;;3.03;2.30;;;19.00;97.20;;;;;;4987752;28;20639;-76
2023/08/07 00:34:23;;;;;;;1.80;1.70;;;19.00;97.20;;;;;;4987857;28;21352;-75
2023/08/07 00:36:49;;;;;;;4.40;2.07;;;19.00;97.20;;;;;;4987986;28;20448;-74
2023/08/07 00:39:18;;;;;;;6.73;2.30;;;19.00;97.20;;;;;;4998863;28;21355;-74
2023/08/07 00:41:44;;;;;;;2.13;1.93;;;19.00;97.20;;;;;;5008365;28;20810;-74
2023/08/07 00:44:09;;;;;;;2.80;1.97;;;19.00;97.20;;;;;;5008578;28;20400;-74
2023/08/07 00:46:36;;;;;;;5.20;2.10;;;19.00;97.20;;;;;;4987763;28;20468;-74
2023/08/07 00:49:03;;;;;;;3.43;2.33;;;18.90;97.10;;;;;;5001792;28;20443;-75
2023/08/07 00:51:34;;;;;;;4.03;2.40;;;18.90;97.10;;;;;;4991004;28;20550;-74
2023/08/07 00:54:05;;;;;;;3.60;2.30;;;18.90;97.10;;;;;;5006635;28;20452;-75
2023/08/07 00:56:32;;;;;;;3.77;2.17;;;19.00;97.20;;;;;;4989618;28;20424;-74
2023/08/07 00:59:01;;;;;;;3.03;2.17;;;18.90;97.10;;;;;;4977326;28;20457;-75
2023/08/07 01:01:30;;;;;;;2.90;1.90;;;18.90;97.10;;;;;;4971124;28;20451;-74
2023/08/07 01:03:59;;;;;;;4.13;2.40;;;18.90;97.10;;;;;;4971661;28;20524;-75
2023/08/07 01:06:26;;;;;;;4.00;2.37;;;18.90;97.10;;;;;;4988344;28;20831;-75
2023/08/07 01:08:53;;;;;;;4.37;2.00;;;18.90;97.10;;;;;;4983207;28;20444;-74
2023/08/07 01:11:37;;;;;;;5.13;2.20;;;18.90;97.10;;;;;;5008115;28;20448;-74
2023/08/07 01:14:46;;;;;;;3.50;1.90;;;18.90;97.10;;;;;;4990851;28;20482;-75
2023/08/07 01:17:15;;;;;;;4.10;2.23;;;18.90;97.10;;;;;;4961896;28;20485;-74
2023/08/07 01:19:42;;;;;;;3.30;2.27;;;18.90;97.10;;;;;;4973551;28;20413;-75
2023/08/07 01:22:10;;;;;;;3.57;1.90;;;18.90;97.10;;;;;;4990288;28;20918;-74
2023/08/07 01:24:43;;;;;;;2.90;2.20;;;18.90;97.10;;;;;;4990031;28;20531;-74
2023/08/07 01:27:17;;;;;;;3.93;2.43;;;18.90;97.10;;;;;;4990571;28;20508;-75
2023/08/07 01:29:54;;;;;;;2.97;2.30;;;18.80;97.00;;;;;;5006597;28;20440;-74
2023/08/07 01:32:51;;;;;;;3.87;2.53;;;18.80;97.00;;;;;;5007103;28;20432;-74
2023/08/07 01:35:25;;;;;;;6.23;2.30;;;18.90;97.10;;;;;;4989775;28;20444;-74
2023/08/07 01:37:54;;;;;;;3.60;2.13;;;18.80;97.10;;;;;;4987565;28;20568;-75
2023/08/07 01:40:24;;;;;;;4.17;2.20;;;18.80;97.10;;;;;;4971443;28;20534;-74
2023/08/07 01:42:53;;;;;;;4.87;2.20;;;18.80;97.10;;;;;;4988609;28;20458;-74
2023/08/07 01:45:28;;;;;;;5.73;2.60;;;18.80;97.10;;;;;;4971698;28;20417;-74
2023/08/07 01:47:55;;;;;;;4.80;2.33;;;18.80;97.10;;;;;;4974353;28;21076;-75
2023/08/07 01:50:23;;;;;;;3.40;2.50;;;18.80;97.10;;;;;;4990602;28;21097;-75
2023/08/07 01:52:49;;;;;;;4.53;2.40;;;18.80;97.10;;;;;;4990018;28;20482;-74
2023/08/07 01:55:20;;;;;;;6.30;2.57;;;18.80;97.10;;;;;;4991728;28;20417;-75
2023/08/07 01:57:50;;;;;;;5.97;2.17;;;18.80;97.20;;;;;;5004324;28;20443;-74
2023/08/07 02:00:17;;;;;;;6.60;2.80;;;18.80;97.20;;;;;;4987977;28;20520;-75
2023/08/07 02:02:48;;;;;;;3.43;2.13;;;18.80;97.20;;;;;;4989036;28;21017;-74
2023/08/07 02:05:20;;;;;;;3.10;2.27;;;18.80;97.20;;;;;;4988318;28;20527;-74
2023/08/07 02:07:46;;;;;;;3.00;2.30;;;18.80;97.20;;;;;;4975333;28;20473;-75
2023/08/07 02:10:14;;;;;;;3.93;2.50;;;18.80;97.20;;;;;;5012561;28;20463;-75
2023/08/07 02:12:44;;;;;;;6.50;3.00;;;18.80;97.20;;;;;;5010536;28;20959;-75
2023/08/07 02:15:10;;;;;;;3.37;2.50;;;18.80;97.20;;;;;;4994549;28;20842;-74
2023/08/07 02:17:40;;;;;;;3.40;2.57;;;18.80;97.30;;;;;;4999522;28;21351;-74
2023/08/07 02:20:08;;;;;;;4.27;2.13;;;18.80;97.20;;;;;;4990683;28;20815;-74
2023/08/07 02:22:39;;;;;;;3.93;2.30;;;18.70;97.20;;;;;;4990826;28;20515;-75
2023/08/07 02:25:05;;;;;;;4.33;2.60;;;18.70;97.60;;;;;;4974180;28;21173;-75
2023/08/07 02:27:36;;;;;;;3.77;2.67;;;18.70;97.30;;;;;;4974351;28;20828;-76
2023/08/07 02:30:06;;;;;;;4.67;2.70;;;18.70;97.30;;;;;;4970255;28;21218;-76
2023/08/07 02:32:33;;;;;;;5.17;2.80;;;18.70;97.30;;;;;;4970448;28;20426;-74
2023/08/07 02:34:59;;;;;;;4.43;2.90;;;18.70;97.30;;;;;;4954401;28;20533;-74
2023/08/07 02:37:29;;;;;;;5.47;2.70;;;18.70;97.30;;;;;;4970244;28;20453;-74
2023/08/07 02:40:00;;;;;;;4.47;2.53;;;18.70;97.60;;;;;;5008528;28;20591;-74
2023/08/07 02:42:28;;;;;;;4.40;2.50;;;18.70;97.30;;;;;;5009218;28;20435;-74
2023/08/07 02:44:54;;;;;;;4.20;2.70;;;18.70;97.30;;;;;;4993010;28;20427;-74
2023/08/07 02:47:20;;;;;;;5.27;2.67;;;18.70;97.30;;;;;;4984330;28;20971;-74
2023/08/07 02:49:48;;;;;;;5.67;2.23;;;18.70;97.30;;;;;;5007336;28;20196;-74
2023/08/07 02:52:20;;;;;;;3.80;2.60;;;18.70;97.30;;;;;;5009025;28;20459;-75
2023/08/07 02:54:48;;;;;;;5.20;3.10;;;18.70;97.30;;;;;;4992461;28;20464;-75
2023/08/07 02:57:14;;;;;;;4.70;2.30;;;18.70;97.30;;;;;;5008923;28;20783;-74
2023/08/07 02:59:40;;;;;;;5.57;2.70;;;18.70;97.30;;;;;;4976287;28;20437;-75
2023/08/07 03:02:06;;;;;;;6.23;2.90;;;18.60;97.30;;;;;;4973741;28;20507;-74
2023/08/07 03:04:32;;;;;;;4.00;2.30;;;18.60;97.30;;;;;;4973358;28;20460;-74
2023/08/07 03:07:01;;;;;;;3.37;2.70;;;18.70;97.30;;;;;;4988944;28;20588;-75
2023/08/07 03:09:29;;;;;;;3.03;2.43;;;18.60;97.60;;;;;;5003399;28;20452;-74
2023/08/07 03:11:55;;;;;;;4.67;2.43;;;18.60;97.30;;;;;;5008332;28;20428;-75
2023/08/07 03:14:21;;;;;;;3.30;3.00;;;18.60;97.30;;;;;;5009462;28;20417;-74
2023/08/07 03:16:50;;;;;;;4.33;2.40;;;18.60;97.30;;;;;;4984822;28;20869;-75
2023/08/07 03:19:21;;;;;;;3.87;2.70;;;18.60;97.30;;;;;;4995314;28;20491;-72
2023/08/07 03:21:52;;;;;;;7.57;3.03;;;18.60;97.30;;;;;;5008602;28;20455;-74
2023/08/07 03:24:18;;;;;;;4.20;3.40;;;18.60;97.30;;;;;;4991949;28;20447;-74
2023/08/07 03:26:47;;;;;;;3.70;2.77;;;18.60;97.30;;;;;;4992188;28;20459;-74
2023/08/07 03:29:13;;;;;;;4.80;2.97;;;18.60;97.30;;;;;;4979668;28;20453;-74
2023/08/07 03:31:39;;;;;;;3.43;2.50;;;18.60;97.30;;;;;;4988950;28;20469;-74
2023/08/07 03:34:12;;;;;;;4.97;3.33;;;18.60;97.30;;;;;;4973771;28;20417;-74
2023/08/07 03:36:38;;;;;;;4.20;2.57;;;18.60;97.30;;;;;;4988539;28;20405;-74
2023/08/07 03:39:04;;;;;;;6.57;2.70;;;18.60;97.30;;;;;;4999299;28;20462;-74
2023/08/07 03:41:31;;;;;;;4.30;3.00;;;18.60;97.30;;;;;;4991759;28;20459;-74
2023/08/07 03:43:57;;;;;;;3.33;2.93;;;18.60;97.30;;;;;;5007826;28;20507;-74
2023/08/07 03:46:23;;;;;;;6.43;2.87;;;18.60;97.30;;;;;;4990860;28;20576;-74
2023/08/07 03:48:55;;;;;;;6.10;2.77;;;18.60;97.30;;;;;;4997306;28;20436;-74
2023/08/07 03:51:22;;;;;;;5.43;2.63;;;18.60;97.30;;;;;;5007778;28;20864;-74
2023/08/07 03:53:54;;;;;;;3.83;3.17;;;18.60;97.30;;;;;;4990976;28;20457;-74
2023/08/07 03:56:23;;;;;;;4.83;2.53;;;18.50;97.20;;;;;;4991308;28;21324;-74
2023/08/07 03:58:51;;;;;;;6.23;3.20;;;18.50;97.20;;;;;;4985464;28;20445;-74
2023/08/07 04:01:19;;;;;;;6.10;3.70;;;18.50;97.30;;;;;;4988275;28;20441;-74
2023/08/07 04:03:48;;;;;;;5.73;3.30;;;18.50;97.30;;;;;;4988158;28;20447;-74
2023/08/07 04:06:19;;;;;;;9.40;3.60;;;18.50;97.20;;;;;;4972683;28;20474;-74
2023/08/07 04:08:48;;;;;;;3.20;2.90;;;18.50;97.20;;;;;;4995855;28;20439;-74
2023/08/07 04:11:18;;;;;;;4.67;3.10;;;18.50;97.60;;;;;;4999785;28;20471;-74
2023/08/07 04:13:44;;;;;;;4.03;3.47;;;18.50;97.20;;;;;;4972205;28;20543;-73
2023/08/07 04:16:10;;;;;;;9.60;3.40;;;18.50;97.20;;;;;;4972008;28;20935;-74
2023/08/07 04:18:42;;;;;;;6.57;3.63;;;18.50;97.20;;;;;;4978369;28;20811;-74
2023/08/07 04:21:08;;;;;;;5.63;3.40;;;18.50;97.20;;;;;;5000219;28;20481;-74
2023/08/07 04:23:37;;;;;;;4.47;3.53;;;18.40;97.20;;;;;;4971516;28;20923;-74
2023/08/07 04:26:03;;;;;;;5.80;3.97;;;18.50;97.20;;;;;;4987716;28;20832;-74
2023/08/07 04:28:33;;;;;;;4.57;3.20;;;18.50;97.20;;;;;;4977356;28;20495;-74
2023/08/07 04:30:59;;;;;;;8.40;3.60;;;18.50;97.20;;;;;;4999356;28;20441;-74
2023/08/07 04:33:25;;;;;;;5.80;3.40;;;18.50;97.20;;;;;;5131041;23;20602;-74
2023/08/07 04:35:51;;;;;;;3.90;3.57;;;18.40;97.20;;;;;;5038684;28;20414;-74
2023/08/07 04:38:17;;;;;;;5.63;3.03;;;18.50;97.60;;;;;;5040606;28;20463;-74
2023/08/07 04:40:47;;;;;;;6.33;3.30;;;18.40;97.20;;;;;;4990953;28;20594;-74
2023/08/07 04:43:15;;;;;;;4.27;3.20;;;18.40;97.20;;;;;;5014266;28;20500;-74
2023/08/07 04:45:44;;;;;;;9.57;4.10;;;18.40;97.20;;;;;;5027139;28;20450;-74
2023/08/07 04:48:15;;;;;;;3.87;3.00;;;18.40;97.20;;;;;;5011429;28;20866;-74
2023/08/07 04:50:44;;;;;;;3.73;3.10;;;18.40;97.20;;;;;;4978126;28;20455;-73
2023/08/07 04:53:10;;;;;;;3.10;2.90;;;18.40;97.20;;;;;;5009438;28;20463;-74
2023/08/07 04:55:38;;;;;;;5.20;3.50;;;18.40;97.20;;;;;;5012622;28;20395;-79
2023/08/07 04:58:05;;;;;;;4.50;3.20;;;18.40;97.20;;;;;;4998401;28;20419;-78
2023/08/07 05:00:33;;;;;;;2.83;2.60;;;18.40;97.20;;;;;;5026667;28;20993;-78
2023/08/07 05:02:59;;;;;;;5.70;3.30;;;18.40;97.20;;;;;;5010458;28;20501;-77
2023/08/07 05:05:28;;;;;;;4.50;3.50;;;18.40;97.20;;;;;;4977422;28;20217;-77
2023/08/07 05:08:00;;;;;;;5.10;2.90;;;18.40;97.20;;;;;;4979122;28;20586;-78
2023/08/07 05:10:29;;;;;;;5.77;2.73;;;18.40;97.20;;;;;;4994606;28;20468;-78
2023/08/07 05:12:57;;;;;;;9.80;3.47;;;18.40;97.20;;;;;;5012905;28;20523;-78
2023/08/07 05:15:24;;;;;;;4.23;3.63;;;18.40;97.20;;;;;;4978941;28;20420;-77
2023/08/07 05:17:52;;;;;;;3.40;3.03;;;18.40;97.20;;;;;;4979116;28;20412;-78
2023/08/07 05:20:18;;;;;;;6.07;3.77;;;18.40;97.20;;;;;;5011297;28;20452;-78
2023/08/07 05:22:47;;;;;;;4.53;3.27;;;18.30;97.10;;;;;;4979038;28;20514;-78
2023/08/07 05:25:15;;;;;;;6.70;3.40;;;18.30;97.10;;;;;;5003565;23;21016;-76
2023/08/07 05:27:49;;;;;;;6.10;3.20;;;18.30;97.20;;;;;;5007637;28;20482;-77
2023/08/07 05:30:15;;;;;;;5.40;3.30;;;18.30;97.20;;;;;;5018215;28;21171;-77
2023/08/07 05:32:42;;;;;;;3.40;3.10;;;18.30;97.20;;;;;;5022925;28;20455;-76
2023/08/07 05:35:08;;;;;;;3.40;3.10;;;18.30;97.20;;;;;;5009412;28;20835;-77
2023/08/07 05:37:37;;;;;;;4.63;3.47;;;18.30;97.20;;;;;;4975298;28;20424;-77
2023/08/07 05:40:06;;;;;;;4.20;3.40;;;18.30;97.20;;;;;;4989530;28;20444;-77
2023/08/07 05:42:37;;;;;;;3.93;3.33;;;18.30;97.20;;;;;;4990181;28;20896;-77
2023/08/07 05:45:10;;;;;;;5.40;3.63;;;18.30;97.20;;;;;;4959083;28;20463;-77
2023/08/07 05:47:35;;;;;;;7.50;4.53;;;18.30;97.20;;;;;;4975924;28;20473;-77
2023/08/07 05:50:02;;;;;;;5.00;3.77;;;18.30;97.20;;;;;;4993702;28;20526;-77
2023/08/07 05:52:29;;;;;;;4.93;3.40;;;18.30;97.30;;;;;;4996443;28;20434;-77
2023/08/07 05:54:55;;;;;;;4.07;3.63;;;18.30;97.30;;;;;;5013043;28;20480;-77
2023/08/07 05:57:24;;;;;;;6.60;4.20;;;18.30;97.30;;;;;;5025438;28;21339;-77
2023/08/07 05:59:49;;;;;;;4.10;3.70;;;18.30;97.40;;;;;;5006363;28;20472;-77
2023/08/07 06:02:20;;;;;;;6.33;3.73;;;18.30;97.40;;;;;;4993190;28;20486;-77
2023/08/07 06:04:47;;;;;;;7.23;4.03;;;18.30;97.40;;;;;;4993491;28;20502;-77
2023/08/07 06:07:13;;;;;;;5.80;3.60;;;18.30;97.40;;;;;;5010307;28;21303;-77
2023/08/07 06:09:39;;;;;;;6.50;3.63;;;18.30;97.40;;;;;;5012851;28;20991;-77
2023/08/07 06:12:10;;;;;;;6.60;3.57;;;18.20;97.40;;;;;;5012553;28;20439;-77
2023/08/07 06:14:37;;;;;;;7.10;3.53;;;18.20;97.40;;;;;;5013105;28;20480;-77
2023/08/07 06:17:03;;;;;;;7.67;4.00;;;18.20;97.40;;;;;;5006403;28;20524;-77
2023/08/07 06:19:31;;;;;;;6.40;3.23;;;18.20;97.40;;;;;;5013046;28;21306;-76
2023/08/07 06:21:58;;;;;;;3.53;3.20;;;18.20;97.40;;;;;;5030444;28;20486;-77
2023/08/07 06:24:25;;;;;;;7.03;4.10;;;18.20;97.40;;;;;;4988233;28;20942;-77
2023/08/07 06:26:55;;;;;;;3.83;2.97;;;18.20;97.50;;;;;;5003244;28;20462;-77
2023/08/07 06:29:21;;;;;;;5.30;3.83;;;18.20;97.50;;;;;;4999415;28;20428;-77
2023/08/07 06:31:49;;;;;;;4.57;3.50;;;18.20;97.50;;;;;;5000361;28;20444;-77
2023/08/07 06:34:18;;;;;;;4.50;3.70;;;18.20;97.50;;;;;;5008906;28;21110;-77
2023/08/07 06:36:43;;;;;;;4.70;3.70;;;18.20;97.50;;;;;;5009587;28;20408;-77
2023/08/07 06:39:12;;;;;;;3.90;3.43;;;18.20;97.50;;;;;;4976151;28;20470;-77
2023/08/07 06:41:39;;;;;;;4.20;3.50;;;18.20;97.50;;;;;;5004902;28;20459;-77
2023/08/07 06:44:05;;;;;;;4.20;3.37;;;18.20;97.50;;;;;;4996566;28;20439;-77
2023/08/07 06:46:31;;;;;;;6.73;3.53;;;18.20;97.60;;;;;;4992496;28;20471;-76
2023/08/07 06:48:59;;;;;;;6.60;3.90;;;18.20;97.60;;;;;;4992635;28;20427;-77
2023/08/07 06:51:28;;;;;;;5.10;3.33;;;18.20;97.60;;;;;;4992930;28;20451;-77
2023/08/07 06:53:56;;;;;;;4.00;3.50;;;18.20;97.60;;;;;;4973557;28;20460;-77
2023/08/07 06:56:24;;;;;;;7.27;3.87;;;18.20;97.60;;;;;;4993037;28;20818;-77
2023/08/07 06:58:55;;;;;;;5.47;3.53;;;18.20;97.60;;;;;;4976982;28;20424;-77
2023/08/07 07:01:24;;;;;;;5.57;3.30;;;18.20;97.60;;;;;;5009448;28;20533;-77
2023/08/07 07:03:52;;;;;;;3.77;3.47;;;18.20;97.70;;;;;;5011252;28;20420;-77
2023/08/07 07:06:25;;;;;;;5.70;3.80;;;18.20;97.60;;;;;;4995667;28;20494;-77
2023/08/07 07:08:54;;;;;;;3.83;3.30;;;18.20;97.70;;;;;;5029841;28;20756;-77
2023/08/07 07:11:22;;;;;;;4.70;3.73;;;18.20;97.70;;;;;;5008305;28;20451;-77
2023/08/07 07:13:49;;;;;;;7.03;4.00;;;18.20;97.70;;;;;;4994893;28;20436;-77
2023/08/07 07:16:18;;;;;;;3.77;3.10;;;18.20;97.70;;;;;;5011911;28;20438;-77
2023/08/07 07:18:49;;;;;;;9.00;3.97;;;18.20;97.70;;;;;;5011555;28;20411;-77
2023/08/07 07:21:15;;;;;;;4.30;3.90;;;18.20;97.70;;;;;;5020562;28;20455;-77
2023/08/07 07:23:41;;;;;;;3.53;3.23;;;18.20;97.70;;;;;;5008285;28;20427;-77
2023/08/07 07:26:10;;;;;;;4.87;3.57;;;18.20;97.70;;;;;;4973788;28;20232;-77
2023/08/07 07:28:36;;;;;;;4.40;3.30;;;18.20;97.70;;;;;;4990511;28;21214;-77
2023/08/07 07:31:03;;;;;;;6.33;3.00;;;18.20;97.70;;;;;;4995837;28;21216;-77
2023/08/07 07:33:32;;;;;;;5.93;3.47;;;18.20;97.70;;;;;;4993093;28;20454;-77
2023/08/07 07:35:58;;;;;;;5.60;3.30;;;18.20;97.70;;;;;;4971801;28;20430;-76
2023/08/07 07:38:26;;;;;;;5.23;3.63;;;18.20;97.80;;;;;;4956298;28;20440;-77
2023/08/07 07:40:56;;;;;;;6.77;3.87;;;18.20;97.80;;;;;;5002180;28;20460;-77
2023/08/07 07:43:24;;;;;;;3.90;3.50;;;18.10;97.80;;;;;;5028923;28;20419;-75
2023/08/07 07:45:50;;;;;;;8.77;3.83;;;18.10;97.80;;;;;;5028046;28;20548;-77
2023/08/07 07:48:21;;;;;;;4.40;3.13;;;18.20;97.90;;;;;;5028769;28;20440;-77
2023/08/07 07:50:47;;;;;;;5.50;3.20;;;18.10;97.80;;;;;;5010357;28;20549;-77
2023/08/07 07:53:15;;;;;;;3.67;3.03;;;18.10;97.90;;;;;;5028569;28;20415;-77
2023/08/07 07:55:48;;;;;;;5.30;3.37;;;18.10;97.90;;;;;;5014686;28;20417;-77
2023/08/07 07:58:16;;;;;;;4.53;3.27;;;18.10;97.90;;;;;;4972522;28;20484;-77
2023/08/07 08:00:42;;;;;;;4.13;3.00;;;18.10;97.90;;;;;;4977458;28;20932;-76
2023/08/07 08:03:10;;;;;;;5.90;3.53;;;18.10;97.90;;;;;;5008436;28;20470;-77
2023/08/07 08:05:40;;;;;;;6.00;3.80;;;18.10;97.90;;;;;;5002704;28;21068;-77
2023/08/07 08:08:11;;;;;;;4.63;4.17;;;18.10;97.90;;;;;;5006419;28;20467;-77
2023/08/07 08:10:39;;;;;;;4.83;3.00;;;18.10;97.90;;;;;;4991317;28;20452;-77
2023/08/07 08:13:08;;;;;;;3.70;3.23;;;18.10;98.00;;;;;;5014107;28;20984;-77
2023/08/07 08:15:34;;;;;;;4.23;3.63;;;18.10;98.00;;;;;;5014135;28;20470;-77
2023/08/07 08:18:00;;;;;;;4.47;3.20;;;18.10;98.00;;;;;;4975861;28;21044;-77
2023/08/07 08:20:26;;;;;;;4.40;3.33;;;18.10;98.40;;;;;;4991249;28;20439;-77
2023/08/07 08:22:55;;;;;;;3.70;3.40;;;18.10;98.00;;;;;;5023692;28;20938;-77
2023/08/07 08:25:21;;;;;;;5.63;3.80;;;18.10;98.00;;;;;;4971449;28;20809;-76
2023/08/07 08:27:52;;;;;;;6.60;2.90;;;18.10;98.10;;;;;;5005502;28;20558;-77
2023/08/07 08:30:18;;;;;;;3.23;2.87;;;18.10;98.10;;;;;;4992632;28;20531;-77
2023/08/07 08:32:44;;;;;;;4.03;3.13;;;18.10;98.10;;;;;;4973906;28;21144;-77
2023/08/07 08:35:13;;;;;;;3.50;3.20;;;18.10;98.10;;;;;;4990615;28;20502;-77
2023/08/07 08:37:40;;;;;;;3.83;3.10;;;18.10;98.10;;;;;;5008022;28;20440;-77
2023/08/07 08:40:12;;;;;;;3.60;3.17;;;18.10;98.10;;;;;;5006805;28;20452;-77
2023/08/07 08:42:45;;;;;;;3.60;3.30;;;18.10;98.00;;;;;;4990039;28;20464;-77
2023/08/07 08:45:13;;;;;;;8.63;3.33;;;18.20;98.10;;;;;;4990568;28;20770;-76
2023/08/07 08:47:41;;;;;;;3.10;2.80;;;18.10;98.00;;;;;;4990308;28;20543;-76
2023/08/07 08:50:09;;;;;;;6.80;3.20;;;18.10;98.00;;;;;;4990292;28;20443;-77
2023/08/07 08:52:37;;;;;;;5.40;2.90;;;18.10;98.10;;;;;;4974283;28;20857;-77
2023/08/07 08:55:05;;;;;;;3.40;3.10;;;18.10;98.00;;;;;;4973750;28;20451;-77
2023/08/07 08:57:34;;;;;;;4.60;3.10;;;18.10;98.10;;;;;;4990114;28;20428;-77
2023/08/07 09:00:00;;;;;;;4.00;2.90;;;18.10;98.10;;;;;;4989907;28;20458;-77
2023/08/07 09:02:31;;;;;;;5.77;3.13;;;18.10;98.20;;;;;;5008167;28;20518;-76
2023/08/07 09:04:57;;;;;;;3.73;2.77;;;18.20;98.30;;;;;;4991978;28;21051;-77
2023/08/07 09:07:26;;;;;;;3.77;3.00;;;18.20;98.30;;;;;;4991919;28;20526;-77
2023/08/07 09:09:53;;;;;;;4.30;3.20;;;18.20;98.40;;;;;;4990712;28;20483;-76
2023/08/07 09:12:29;;;;;;;3.50;2.60;;;18.20;98.40;;;;;;4990640;28;20760;-77
2023/08/07 09:15:01;;;;;;;3.17;2.97;;;18.20;98.50;;;;;;4990198;28;20531;-77
2023/08/07 09:17:29;;;;;;;3.53;3.23;;;18.20;98.50;;;;;;4992169;28;21015;-77
2023/08/07 09:19:55;;;;;;;4.33;2.87;;;18.20;98.50;;;;;;4994544;28;20448;-77
2023/08/07 09:22:21;;;;;;;5.27;3.30;;;18.20;98.50;;;;;;4993942;28;20459;-77
2023/08/07 09:24:47;;;;;;;4.53;3.10;;;18.20;98.60;;;;;;5011830;28;20523;-77
2023/08/07 09:27:16;;;;;;;4.13;3.37;;;18.20;98.60;;;;;;5011480;28;20522;-76
2023/08/07 09:29:47;;;;;;;4.03;3.30;;;18.20;98.60;;;;;;5012335;28;20443;-77
2023/08/07 09:32:13;;;;;;;4.03;2.93;;;18.20;98.60;;;;;;4977825;28;20542;-77
2023/08/07 09:34:44;;;;;;;5.40;3.90;;;18.20;98.60;;;;;;5010294;28;20443;-77
2023/08/07 09:37:10;;;;;;;4.90;3.27;;;18.20;98.60;;;;;;4993976;28;20492;-77
2023/08/07 09:39:40;;;;;;;5.07;2.93;;;18.20;98.60;;;;;;5001733;28;20457;-76
2023/08/07 09:42:16;;;;;;;5.03;3.03;;;18.20;98.60;;;;;;5024509;28;20458;-78
2023/08/07 09:44:44;;;;;;;4.47;2.53;;;18.20;98.90;;;;;;4994959;28;20993;-77
2023/08/07 09:47:13;;;;;;;4.13;3.20;;;18.20;98.50;;;;;;4995141;28;20954;-78
2023/08/07 09:49:40;;;;;;;5.57;3.00;;;18.20;98.50;;;;;;4978515;28;20505;-77
2023/08/07 09:52:07;;;;;;;7.07;3.60;;;18.20;98.50;;;;;;4995959;28;20428;-77
2023/08/07 09:54:34;;;;;;;6.60;3.90;;;18.20;98.60;;;;;;5011256;28;20441;-77
2023/08/07 09:57:06;;;;;;;4.40;3.57;;;18.20;98.60;;;;;;5029579;28;20506;-76
2023/08/07 09:59:33;;;;;;;6.00;3.30;;;18.20;98.60;;;;;;5021808;28;20436;-77
2023/08/07 10:02:03;;;;;;;3.80;3.23;;;18.20;98.60;;;;;;5007312;28;20463;-77
2023/08/07 10:04:30;;;;;;;6.50;3.33;;;18.30;98.70;;;;;;5011998;28;20485;-77
2023/08/07 10:06:57;;;;;;;4.63;3.10;;;18.20;98.70;;;;;;4989418;28;21026;-77
2023/08/07 10:09:23;;;;;;;4.90;3.60;;;18.20;98.70;;;;;;4992789;28;20478;-78
2023/08/07 10:11:53;;;;;;;5.57;3.10;;;18.30;99.10;;;;;;4992067;28;20452;-78
2023/08/07 10:14:19;;;;;;;4.30;3.20;;;18.30;98.80;;;;;;4992382;28;20499;-76
2023/08/07 10:16:48;;;;;;;4.53;3.23;;;18.30;98.80;;;;;;4993484;28;20427;-77
2023/08/07 10:19:17;;;;;;;3.80;2.70;;;18.30;98.90;;;;;;5011817;28;20438;-77
2023/08/07 10:21:43;;;;;;;3.60;3.30;;;18.30;99.00;;;;;;5010169;28;20985;-77
2023/08/07 10:24:10;;;;;;;5.57;3.40;;;18.30;99.00;;;;;;5010208;28;20420;-77
2023/08/07 10:26:45;;;;;;;4.23;3.10;;;18.30;98.90;;;;;;5011288;28;20463;-75
2023/08/07 10:29:18;;;;;;;6.33;3.20;;;18.30;98.90;;;;;;5009961;28;20495;-77
2023/08/07 10:31:45;;;;;;;4.50;3.13;;;18.30;99.00;;;;;;4993844;28;20450;-77
2023/08/07 10:34:11;;;;;;;6.00;3.80;;;18.30;99.00;;;;;;5009896;28;20483;-77
2023/08/07 10:36:40;;;;;;;5.27;3.70;;;18.40;99.10;;;;;;5013194;28;20434;-77
2023/08/07 10:39:11;;;;;;;5.23;3.70;;;18.40;99.00;;;;;;5010796;28;20428;-77
2023/08/07 10:41:44;;;;;;;4.20;3.53;;;18.40;98.90;;;;;;4976636;28;20543;-77
2023/08/07 10:44:24;;;;;;;8.00;3.73;;;18.40;98.90;;;;;;4976639;28;20435;-77
2023/08/07 10:46:55;;;;;;;7.40;3.60;;;18.40;98.80;;;;;;4978343;28;20487;-77
2023/08/07 10:49:43;;;;;;;6.90;4.00;;;18.40;98.60;;;;;;4993913;28;20467;-77
2023/08/07 10:52:13;;;;;;;4.67;3.50;;;18.50;98.70;;;;;;4976865;28;20405;-76
2023/08/07 10:54:49;;;;;;;5.63;3.67;;;18.50;98.60;;;;;;4993136;28;20512;-77
2023/08/07 10:57:22;;;;;;;5.83;3.97;;;18.50;98.50;;;;;;4992652;28;20527;-76
2023/08/07 11:00:00;;;;;;;6.93;4.30;;;18.50;98.50;;;;;;4993041;28;20436;-77
2023/08/07 11:02:30;;;;;;;6.20;3.70;;;18.50;98.50;;;;;;4995055;28;20407;-78
2023/08/07 11:04:56;;;;;;;7.40;4.00;;;18.60;98.10;;;;;;4994076;28;20463;-76
2023/08/07 11:07:31;;;;;;;6.77;4.27;;;18.60;97.80;;;;;;5011203;28;20510;-76
2023/08/07 11:09:58;;;;;;;8.70;3.57;;;18.60;97.70;;;;;;4960995;28;20481;-76
2023/08/07 11:12:26;;;;;;;7.23;4.30;;;18.60;97.60;;;;;;4997212;28;20765;-77
2023/08/07 11:14:57;;;;;;;7.10;4.00;;;18.60;97.60;;;;;;5012653;28;20400;-76
2023/08/07 11:17:27;;;;;;;4.40;3.40;;;18.70;97.50;;;;;;5012603;28;20424;-76
2023/08/07 11:19:54;;;;;;;5.47;4.23;;;18.70;97.50;;;;;;5029977;28;20443;-77
2023/08/07 11:22:20;;;;;;;3.57;3.27;;;18.70;97.50;;;;;;5012069;28;20511;-76
2023/08/07 11:24:50;;;;;;;6.57;3.67;;;18.70;97.40;;;;;;5025481;28;20534;-76
2023/08/07 11:27:17;;;;;;;5.30;3.40;;;18.70;97.20;;;;;;4989169;28;20492;-77
2023/08/07 11:29:47;;;;;;;6.27;3.50;;;18.80;97.00;;;;;;5006125;28;20440;-77
2023/08/07 11:32:14;;;;;;;4.03;3.60;;;18.80;97.00;;;;;;5006850;28;20397;-77
2023/08/07 11:34:50;;;;;;;5.70;3.40;;;18.80;96.80;;;;;;4987482;28;20508;-77
2023/08/07 11:37:17;;;;;;;8.60;3.47;;;18.80;96.60;;;;;;4988250;28;20434;-77
2023/08/07 11:39:44;;;;;;;6.30;3.70;;;18.80;96.50;;;;;;4987025;28;20502;-77
2023/08/07 11:42:10;;;;;;;7.33;3.63;;;18.90;96.40;;;;;;5001337;28;20499;-76
2023/08/07 11:44:36;;;;;;;5.13;3.47;;;18.90;96.30;;;;;;5007474;28;20600;-77
2023/08/07 11:47:07;;;;;;;6.07;3.37;;;18.90;96.50;;;;;;5007201;28;20530;-77
2023/08/07 11:49:33;;;;;;;6.17;3.83;;;18.90;96.10;;;;;;5008266;28;20449;-77
2023/08/07 11:52:02;;;;;;;4.63;3.53;;;18.90;95.90;;;;;;5009047;28;20514;-77
2023/08/07 11:54:31;;;;;;;6.90;3.90;;;18.90;95.70;;;;;;4996130;28;20917;-76
2023/08/07 11:57:00;;;;;;;10.53;3.40;;;18.90;95.70;;;;;;4992328;28;20546;-77
2023/08/07 11:59:26;;;;;;;6.37;3.60;;;19.00;95.60;;;;;;4992152;28;20423;-78
2023/08/07 12:01:54;;;;;;;5.43;3.60;;;19.00;95.50;;;;;;4992194;28;20812;-78
2023/08/07 12:04:23;;;;;;;5.40;3.97;;;19.00;95.60;;;;;;4976218;28;20932;-77
2023/08/07 12:06:56;;;;;;;5.97;4.03;;;19.00;95.50;;;;;;4992508;28;20509;-78
2023/08/07 12:09:25;;;;;;;5.20;3.50;;;19.00;95.60;;;;;;4993120;28;20444;-78
2023/08/07 12:11:57;;;;;;;6.10;4.03;;;19.10;95.50;;;;;;5010522;28;20885;-77
2023/08/07 12:14:23;;;;;;;4.10;3.13;;;19.10;95.50;;;;;;4992409;28;20618;-77
2023/08/07 12:16:49;;;;;;;3.80;3.33;;;19.10;95.50;;;;;;5010290;28;21054;-78
2023/08/07 12:19:16;;;;;;;4.37;3.20;;;19.10;95.40;;;;;;4992732;28;20436;-78
2023/08/07 12:21:43;;;;;;;7.00;3.60;;;19.10;95.30;;;;;;4991975;28;20460;-77
2023/08/07 12:24:11;;;;;;;4.90;3.80;;;19.10;95.20;;;;;;4992373;28;20730;-76
2023/08/07 12:26:37;;;;;;;4.40;3.70;;;19.10;95.20;;;;;;4980173;28;20519;-76
2023/08/07 12:29:03;;;;;;;4.97;3.80;;;19.20;95.30;;;;;;5004779;28;20474;-76
2023/08/07 12:31:29;;;;;;;4.73;3.67;;;19.20;95.30;;;;;;4989568;28;20445;-77
2023/08/07 12:33:55;;;;;;;5.73;4.00;;;19.20;95.30;;;;;;4968584;28;20517;-77
2023/08/07 12:36:21;;;;;;;7.17;3.93;;;19.20;95.10;;;;;;4977069;28;20420;-78
2023/08/07 12:38:50;;;;;;;4.27;3.87;;;19.20;94.90;;;;;;4997955;28;20441;-77
2023/08/07 12:44:14;;;;;;;6.23;3.37;;;19.30;94.80;;;;;;5009579;28;20497;-75
2023/08/07 12:46:40;;;;;;;3.07;2.87;;;19.30;94.70;;;;;;4992725;28;20466;-77
2023/08/07 12:49:11;;;;;;;2.90;2.70;;;19.30;94.60;;;;;;5011471;28;20433;-78
2023/08/07 12:51:37;;;;;;;5.90;3.43;;;19.30;94.60;;;;;;4996867;28;20456;-78
2023/08/07 12:54:06;;;;;;;8.93;4.23;;;19.40;94.60;;;;;;5017013;28;20483;-78
2023/08/07 12:56:34;;;;;;;4.93;3.60;;;19.40;94.50;;;;;;5032803;28;20403;-78
2023/08/07 12:59:07;;;;;;;7.10;3.60;;;19.40;94.30;;;;;;5033316;28;21031;-78